createdAt,value
2018-09-12T00:00:17.938Z,98.20
2018-09-12T00:02:45.787Z,98.40
2018-09-12T00:05:13.711Z,98.70
2018-09-12T00:07:42.676Z,99.10
2018-09-12T00:10:10.627Z,99.10
2018-09-12T00:12:38.486Z,99.60
2018-09-12T00:15:06.389Z,99.90
2018-09-12T00:17:34.315Z,99.90
2018-09-12T00:20:07.433Z,99.90
2018-09-12T00:22:36.003Z,99.90
2018-09-12T00:25:03.929Z,99.90
2018-09-12T00:27:32.532Z,99.80
2018-09-12T00:30:00.405Z,99.50
2018-09-12T00:32:28.207Z,99.60
2018-09-12T00:34:56.304Z,99.50
2018-09-12T00:37:24.162Z,99.80
2018-09-12T00:39:52.023Z,99.90
2018-09-12T00:42:19.827Z,99.90
2018-09-12T00:44:47.713Z,99.80
2018-09-12T00:47:15.547Z,99.90
2018-09-12T00:49:43.385Z,99.90
2018-09-12T00:52:11.201Z,99.60
2018-09-12T00:54:39.103Z,99.90
2018-09-12T00:57:06.956Z,99.90
2018-09-12T00:59:34.877Z,99.90
2018-09-12T01:02:02.756Z,99.90
2018-09-12T01:04:30.561Z,99.90
2018-09-12T01:06:58.428Z,99.90
2018-09-12T01:09:26.268Z,99.90
2018-09-12T01:11:54.059Z,99.90
2018-09-12T01:14:21.959Z,99.90
2018-09-12T01:16:54.772Z,99.90
2018-09-12T01:19:22.591Z,99.90
2018-09-12T01:21:50.532Z,99.90
2018-09-12T01:24:18.333Z,99.90
2018-09-12T01:26:46.269Z,99.90
2018-09-12T01:29:14.082Z,99.90
2018-09-12T01:31:41.906Z,99.90
2018-09-12T01:34:13.656Z,99.90
2018-09-12T01:36:41.611Z,99.90
2018-09-12T01:39:10.084Z,99.90
2018-09-12T01:41:38.048Z,99.90
2018-09-12T01:44:06.105Z,99.90
2018-09-12T01:46:33.986Z,99.90
2018-09-12T01:49:01.775Z,99.90
2018-09-12T01:51:29.555Z,99.90
2018-09-12T01:53:57.375Z,99.90
2018-09-12T01:56:25.216Z,99.90
2018-09-12T01:58:53.129Z,99.90
2018-09-12T02:01:21.043Z,99.90
2018-09-12T02:03:48.883Z,99.90
2018-09-12T02:06:16.732Z,99.90
2018-09-12T02:08:44.563Z,99.90
2018-09-12T02:11:12.451Z,99.90
2018-09-12T02:13:40.257Z,99.90
2018-09-12T02:16:08.247Z,99.90
2018-09-12T02:18:36.244Z,99.90
2018-09-12T02:21:04.095Z,99.90
2018-09-12T02:23:31.977Z,99.90
2018-09-12T02:25:59.815Z,99.90
2018-09-12T02:28:27.588Z,99.90
2018-09-12T02:30:55.460Z,99.90
2018-09-12T02:33:23.376Z,99.90
2018-09-12T02:35:57.131Z,99.90
2018-09-12T02:38:25.038Z,99.90
2018-09-12T02:40:52.936Z,99.90
2018-09-12T02:43:20.947Z,99.90
2018-09-12T02:45:48.802Z,99.90
2018-09-12T02:48:16.687Z,99.90
2018-09-12T02:50:44.586Z,99.90
2018-09-12T02:53:12.451Z,99.90
2018-09-12T02:55:40.327Z,99.90
2018-09-12T02:58:08.119Z,99.90
2018-09-12T03:00:39.952Z,99.90
2018-09-12T03:03:07.940Z,99.90
2018-09-12T03:05:35.818Z,99.90
2018-09-12T03:08:03.823Z,99.90
2018-09-12T03:10:31.576Z,99.90
2018-09-12T03:12:59.364Z,99.90
2018-09-12T03:15:27.235Z,99.90
2018-09-12T03:17:55.072Z,99.90
2018-09-12T03:20:22.931Z,99.90
2018-09-12T03:22:50.733Z,99.90
2018-09-12T03:25:18.503Z,99.90
2018-09-12T03:27:46.296Z,99.90
2018-09-12T03:30:14.182Z,99.90
2018-09-12T03:32:42.002Z,99.90
2018-09-12T03:35:09.881Z,99.90
2018-09-12T03:37:37.743Z,99.90
2018-09-12T03:40:06.117Z,99.90
2018-09-12T03:42:33.946Z,99.90
2018-09-12T03:45:01.728Z,99.90
2018-09-12T03:47:29.564Z,99.90
2018-09-12T03:49:57.389Z,99.90
2018-09-12T03:52:25.232Z,99.90
2018-09-12T03:54:53.104Z,99.90
2018-09-12T03:57:20.881Z,99.90
2018-09-12T03:59:48.729Z,99.90
2018-09-12T04:02:16.524Z,99.90
2018-09-12T04:04:44.346Z,99.90
2018-09-12T04:07:12.176Z,99.90
2018-09-12T04:09:39.975Z,99.90
2018-09-12T04:12:07.901Z,99.90
2018-09-12T04:14:35.652Z,99.90
2018-09-12T04:17:03.740Z,99.90
2018-09-12T04:19:31.567Z,99.90
2018-09-12T04:21:59.447Z,99.90
2018-09-12T04:24:27.393Z,99.90
2018-09-12T04:26:55.153Z,99.90
2018-09-12T04:29:23.020Z,99.90
2018-09-12T04:31:50.786Z,99.90
2018-09-12T04:34:18.584Z,99.90
2018-09-12T04:36:46.382Z,99.90
2018-09-12T04:39:14.155Z,99.90
2018-09-12T04:41:42.071Z,99.90
2018-09-12T04:44:09.928Z,99.90
2018-09-12T04:46:37.791Z,99.90
2018-09-12T04:49:05.809Z,99.90
2018-09-12T04:51:33.636Z,99.90
2018-09-12T04:54:01.472Z,99.90
2018-09-12T04:56:29.326Z,99.90
2018-09-12T04:58:57.203Z,99.90
2018-09-12T05:01:25.036Z,99.90
2018-09-12T05:03:53.100Z,99.90
2018-09-12T05:06:21.049Z,99.90
2018-09-12T05:08:49.391Z,99.90
2018-09-12T05:11:17.359Z,99.90
2018-09-12T05:13:45.169Z,99.90
2018-09-12T05:16:13.179Z,99.90
2018-09-12T05:18:41.075Z,99.90
2018-09-12T05:21:08.919Z,99.90
2018-09-12T05:23:36.695Z,99.90
2018-09-12T05:26:04.828Z,99.90
2018-09-12T05:28:32.894Z,99.90
2018-09-12T05:31:00.691Z,99.90
2018-09-12T05:33:28.653Z,99.90
2018-09-12T05:35:56.443Z,99.90
2018-09-12T05:38:24.516Z,99.90
2018-09-12T05:40:52.370Z,99.90
2018-09-12T05:43:20.164Z,99.90
2018-09-12T05:45:48.008Z,99.90
2018-09-12T05:48:15.865Z,99.90
2018-09-12T05:50:43.709Z,99.90
2018-09-12T05:53:11.594Z,99.90
2018-09-12T05:55:39.494Z,99.90
2018-09-12T05:58:07.339Z,99.90
2018-09-12T06:00:35.156Z,99.90
2018-09-12T06:03:02.992Z,99.90
2018-09-12T06:05:30.884Z,99.90
2018-09-12T06:07:58.752Z,99.90
2018-09-12T06:10:26.625Z,99.90
2018-09-12T06:12:54.412Z,99.90
2018-09-12T06:15:22.300Z,99.90
2018-09-12T06:17:50.233Z,99.90
2018-09-12T06:20:18.119Z,99.90
2018-09-12T06:22:45.974Z,99.90
2018-09-12T06:25:14.595Z,99.90
2018-09-12T06:27:42.487Z,99.90
2018-09-12T06:30:10.343Z,99.90
2018-09-12T06:32:38.144Z,99.90
2018-09-12T06:35:06.175Z,99.90
2018-09-12T06:37:33.976Z,99.90
2018-09-12T06:40:01.829Z,99.90
2018-09-12T06:42:29.637Z,99.90
2018-09-12T06:44:57.455Z,99.90
2018-09-12T06:47:25.217Z,99.90
2018-09-12T06:49:53.133Z,99.90
2018-09-12T06:52:21.267Z,99.90
2018-09-12T06:54:49.937Z,99.90
2018-09-12T06:57:17.702Z,99.90
2018-09-12T06:59:45.490Z,99.90
2018-09-12T07:02:13.336Z,99.90
2018-09-12T07:04:41.195Z,99.90
2018-09-12T07:07:08.997Z,99.90
2018-09-12T07:09:36.906Z,99.90
2018-09-12T07:12:04.835Z,99.90
2018-09-12T07:14:32.759Z,99.70
2018-09-12T07:17:00.607Z,99.80
2018-09-12T07:19:28.542Z,99.30
2018-09-12T07:21:56.376Z,99.20
2018-09-12T07:24:24.169Z,98.40
2018-09-12T07:26:51.993Z,98.40
2018-09-12T07:29:19.866Z,97.80
2018-09-12T07:31:47.712Z,97.80
2018-09-12T07:34:15.521Z,97.60
2018-09-12T07:36:43.344Z,97.10
2018-09-12T07:39:15.131Z,97.20
2018-09-12T07:41:43.153Z,96.60
2018-09-12T07:44:10.896Z,95.90
2018-09-12T07:46:38.771Z,96.40
2018-09-12T07:49:07.301Z,96.50
2018-09-12T07:51:35.319Z,96.50
2018-09-12T07:54:03.176Z,96.10
2018-09-12T07:56:30.956Z,94.80
2018-09-12T07:59:01.889Z,93.90
2018-09-12T08:01:29.811Z,94.00
2018-09-12T08:03:57.679Z,92.30
2018-09-12T08:06:25.500Z,91.80
2018-09-12T08:08:53.460Z,92.20
2018-09-12T08:11:21.409Z,93.30
2018-09-12T08:13:49.624Z,91.80
2018-09-12T08:16:17.813Z,91.90
2018-09-12T08:18:45.691Z,90.60
2018-09-12T08:21:13.563Z,90.90
2018-09-12T08:23:41.483Z,91.80
2018-09-12T08:26:09.466Z,92.00
2018-09-12T08:28:37.357Z,91.60
2018-09-12T08:31:05.138Z,91.50
2018-09-12T08:33:33.005Z,90.90
2018-09-12T08:36:00.872Z,91.70
2018-09-12T08:38:28.684Z,87.20
2018-09-12T08:40:56.604Z,88.50
2018-09-12T08:43:24.455Z,87.30
2018-09-12T08:45:52.252Z,89.10
2018-09-12T08:48:20.119Z,88.50
2018-09-12T08:50:49.602Z,87.80
2018-09-12T08:53:17.990Z,81.20
2018-09-12T08:55:46.496Z,82.30
2018-09-12T08:58:14.389Z,79.30
2018-09-12T09:00:42.172Z,73.90
2018-09-12T09:03:09.987Z,74.50
2018-09-12T09:05:37.884Z,77.60
2018-09-12T09:08:05.737Z,76.30
2018-09-12T09:10:33.560Z,76.70
2018-09-12T09:13:01.320Z,77.40
2018-09-12T09:15:29.214Z,77.70
2018-09-12T09:17:56.995Z,76.90
2018-09-12T09:20:25.096Z,78.80
2018-09-12T09:22:53.073Z,74.40
2018-09-12T09:25:20.867Z,72.90
2018-09-12T09:27:48.708Z,73.80
2018-09-12T09:30:16.524Z,75.50
2018-09-12T09:32:44.478Z,75.20
2018-09-12T09:35:12.231Z,73.10
2018-09-12T09:37:40.048Z,73.80
2018-09-12T09:40:08.963Z,73.90
2018-09-12T09:42:37.024Z,68.20
2018-09-12T09:45:05.367Z,71.70
2018-09-12T09:47:33.120Z,70.40
2018-09-12T09:50:00.935Z,64.60
2018-09-12T09:52:28.732Z,64.00
2018-09-12T09:54:56.616Z,63.10
2018-09-12T09:57:24.407Z,66.90
2018-09-12T09:59:52.848Z,68.90
2018-09-12T10:02:26.272Z,65.50
2018-09-12T10:04:59.796Z,64.60
2018-09-12T10:07:33.287Z,64.50
2018-09-12T10:10:03.671Z,65.60
2018-09-12T10:12:32.276Z,61.70
2018-09-12T10:15:00.870Z,65.10
2018-09-12T10:17:28.677Z,63.50
2018-09-12T10:19:56.483Z,61.50
2018-09-12T10:22:24.303Z,60.90
2018-09-12T10:24:52.091Z,61.30
2018-09-12T10:27:19.889Z,60.10
2018-09-12T10:29:47.708Z,60.30
2018-09-12T10:32:15.536Z,60.40
2018-09-12T10:34:43.933Z,59.30
2018-09-12T10:37:13.587Z,58.00
2018-09-12T10:39:41.355Z,57.00
2018-09-12T10:42:09.298Z,55.40
2018-09-12T10:44:37.040Z,54.40
2018-09-12T10:47:05.765Z,52.20
2018-09-12T10:49:33.611Z,49.90
2018-09-12T10:52:05.293Z,50.10
2018-09-12T10:54:34.884Z,48.20
2018-09-12T10:57:02.679Z,49.40
2018-09-12T10:59:30.488Z,47.70
2018-09-12T11:01:58.312Z,46.30
2018-09-12T11:04:26.214Z,44.80
2018-09-12T11:06:54.050Z,43.70
2018-09-12T11:09:21.920Z,42.60
2018-09-12T11:11:49.740Z,42.90
2018-09-12T11:14:17.517Z,42.60
2018-09-12T11:16:45.343Z,42.30
2018-09-12T11:19:13.115Z,40.60
2018-09-12T11:21:40.991Z,40.60
2018-09-12T11:24:08.861Z,41.70
2018-09-12T11:26:36.679Z,39.90
2018-09-12T11:29:04.489Z,40.50
2018-09-12T11:31:32.300Z,40.60
2018-09-12T11:34:00.091Z,42.70
2018-09-12T11:36:27.945Z,39.20
2018-09-12T11:38:55.811Z,38.70
2018-09-12T11:41:23.640Z,39.10
2018-09-12T11:43:51.403Z,40.60
2018-09-12T11:46:19.230Z,40.00
2018-09-12T11:48:47.023Z,39.60
2018-09-12T11:51:14.820Z,39.90
2018-09-12T11:53:42.668Z,41.80
2018-09-12T11:56:10.431Z,39.10
2018-09-12T11:58:38.219Z,39.50
2018-09-12T12:01:06.552Z,39.20
2018-09-12T12:03:34.370Z,37.60
2018-09-12T12:06:02.146Z,38.50
2018-09-12T12:08:29.903Z,38.80
2018-09-12T12:10:57.750Z,36.70
2018-09-12T12:13:25.515Z,38.80
2018-09-12T12:15:53.387Z,38.00
2018-09-12T12:18:25.687Z,39.30
2018-09-12T12:20:53.551Z,39.00
2018-09-12T12:23:21.394Z,39.80
2018-09-12T12:25:49.155Z,38.40
2018-09-12T12:28:17.076Z,37.80
2018-09-12T12:30:44.976Z,36.80
2018-09-12T12:33:12.819Z,37.00
2018-09-12T12:35:40.683Z,37.70
2018-09-12T12:38:08.586Z,36.20
2018-09-12T12:40:36.457Z,37.50
2018-09-12T12:43:04.208Z,39.30
2018-09-12T12:45:32.036Z,37.80
2018-09-12T12:47:59.826Z,36.90
2018-09-12T12:50:27.647Z,39.20
2018-09-12T12:52:55.412Z,37.50
2018-09-12T12:55:23.280Z,35.30
2018-09-12T12:57:51.080Z,35.60
2018-09-12T13:00:23.042Z,36.30
2018-09-12T13:02:50.912Z,37.40
2018-09-12T13:05:18.736Z,35.90
2018-09-12T13:07:46.543Z,39.30
2018-09-12T13:10:14.386Z,39.50
2018-09-12T13:12:42.185Z,37.90
2018-09-12T13:15:12.504Z,38.20
2018-09-12T13:17:40.380Z,37.80
2018-09-12T13:20:08.175Z,39.70
2018-09-12T13:22:36.071Z,38.80
2018-09-12T13:25:04.047Z,38.20
2018-09-12T13:27:37.008Z,37.10
2018-09-12T13:30:05.243Z,39.30
2018-09-12T13:32:33.137Z,36.80
2018-09-12T13:35:00.908Z,39.60
2018-09-12T13:37:28.709Z,40.20
2018-09-12T13:39:56.543Z,40.70
2018-09-12T13:42:24.316Z,39.60
2018-09-12T13:44:52.115Z,41.30
2018-09-12T13:47:19.924Z,39.40
2018-09-12T13:49:47.756Z,38.80
2018-09-12T13:52:15.496Z,39.30
2018-09-12T13:54:43.283Z,38.90
2018-09-12T13:57:15.241Z,39.40
2018-09-12T13:59:43.048Z,40.10
2018-09-12T14:02:21.223Z,39.50
2018-09-12T14:04:50.134Z,38.50
2018-09-12T14:07:18.028Z,41.00
2018-09-12T14:09:45.962Z,41.20
2018-09-12T14:12:13.799Z,39.00
2018-09-12T14:14:41.628Z,40.80
2018-09-12T14:17:09.480Z,40.50
2018-09-12T14:19:37.287Z,41.50
2018-09-12T14:22:05.156Z,40.80
2018-09-12T14:24:32.968Z,40.00
2018-09-12T14:27:00.807Z,40.60
2018-09-12T14:29:28.631Z,40.60
2018-09-12T14:31:56.499Z,41.50
2018-09-12T14:34:24.300Z,40.70
2018-09-12T14:36:52.210Z,41.20
2018-09-12T14:39:20.079Z,41.50
2018-09-12T14:41:47.823Z,40.70
2018-09-12T14:44:15.647Z,40.20
2018-09-12T14:46:43.443Z,38.70
2018-09-12T14:49:11.253Z,40.00
2018-09-12T14:51:39.707Z,40.00
2018-09-12T14:54:07.647Z,38.70
2018-09-12T14:56:35.442Z,38.50
2018-09-12T14:59:03.296Z,40.90
2018-09-12T15:01:31.087Z,40.20
2018-09-12T15:03:58.846Z,38.90
2018-09-12T15:06:26.696Z,39.30
2018-09-12T15:08:54.515Z,40.40
2018-09-12T15:11:22.323Z,37.00
2018-09-12T15:13:50.185Z,39.50
2018-09-12T15:16:17.935Z,38.30
2018-09-12T15:18:45.992Z,37.80
2018-09-12T15:21:13.859Z,38.70
2018-09-12T15:23:41.693Z,39.80
2018-09-12T15:26:09.504Z,39.50
2018-09-12T15:28:37.324Z,38.20
2018-09-12T15:31:05.311Z,40.10
2018-09-12T15:33:36.497Z,39.00
2018-09-12T15:36:04.321Z,37.60
2018-09-12T15:38:32.454Z,39.40
2018-09-12T15:41:00.267Z,39.10
2018-09-12T15:43:28.536Z,36.80
2018-09-12T15:45:56.975Z,38.20
2018-09-12T15:48:24.737Z,37.80
2018-09-12T15:50:52.516Z,39.10
2018-09-12T15:53:20.683Z,39.00
2018-09-12T15:55:48.448Z,39.50
2018-09-12T15:58:16.286Z,38.40
2018-09-12T16:00:44.120Z,39.10
2018-09-12T16:03:12.939Z,39.20
2018-09-12T16:05:40.899Z,40.00
2018-09-12T16:08:08.700Z,37.90
2018-09-12T16:10:36.904Z,38.90
2018-09-12T16:13:04.907Z,39.80
2018-09-12T16:15:32.764Z,38.10
2018-09-12T16:18:00.558Z,39.50
2018-09-12T16:20:29.092Z,39.10
2018-09-12T16:22:57.645Z,39.40
2018-09-12T16:25:25.511Z,40.20
2018-09-12T16:27:53.777Z,39.80
2018-09-12T16:30:21.596Z,38.80
2018-09-12T16:32:49.362Z,40.50
2018-09-12T16:35:17.215Z,38.70
2018-09-12T16:37:45.064Z,39.80
2018-09-12T16:40:12.987Z,40.20
2018-09-12T16:42:40.735Z,41.00
2018-09-12T16:45:08.767Z,40.00
2018-09-12T16:47:36.571Z,40.20
2018-09-12T16:50:04.961Z,40.20
2018-09-12T16:52:33.067Z,41.50
2018-09-12T16:55:00.897Z,40.50
2018-09-12T16:57:30.126Z,40.80
2018-09-12T16:59:57.987Z,40.70
2018-09-12T17:02:25.771Z,40.50
2018-09-12T17:04:53.540Z,41.40
2018-09-12T17:07:21.327Z,41.70
2018-09-12T17:09:49.343Z,41.20
2018-09-12T17:12:17.572Z,41.40
2018-09-12T17:14:45.339Z,41.50
2018-09-12T17:17:13.131Z,42.80
2018-09-12T17:19:45.428Z,41.80
2018-09-12T17:22:13.459Z,41.60
2018-09-12T17:24:41.289Z,43.20
2018-09-12T17:27:09.203Z,43.20
2018-09-12T17:29:36.999Z,44.20
2018-09-12T17:32:04.869Z,44.50
2018-09-12T17:34:35.310Z,44.90
2018-09-12T17:37:03.305Z,44.00
2018-09-12T17:39:31.225Z,45.40
2018-09-12T17:41:59.075Z,45.90
2018-09-12T17:44:26.915Z,44.60
2018-09-12T17:46:54.711Z,45.20
2018-09-12T17:49:22.491Z,45.10
2018-09-12T17:51:50.304Z,45.90
2018-09-12T17:54:18.100Z,46.80
2018-09-12T17:56:45.919Z,46.90
2018-09-12T17:59:13.729Z,46.80
2018-09-12T18:01:41.475Z,47.00
2018-09-12T18:04:09.252Z,47.30
2018-09-12T18:06:37.141Z,47.30
2018-09-12T18:09:07.584Z,47.80
2018-09-12T18:11:35.473Z,48.30
2018-09-12T18:14:03.318Z,48.70
2018-09-12T18:16:31.152Z,49.00
2018-09-12T18:18:59.009Z,49.50
2018-09-12T18:21:26.807Z,49.70
2018-09-12T18:23:54.627Z,50.30
2018-09-12T18:26:22.396Z,51.00
2018-09-12T18:28:50.243Z,51.30
2018-09-12T18:31:18.071Z,51.90
2018-09-12T18:33:45.943Z,52.20
2018-09-12T18:36:14.373Z,52.10
2018-09-12T18:38:42.224Z,52.40
2018-09-12T18:41:10.112Z,53.10
2018-09-12T18:43:37.893Z,53.50
2018-09-12T18:46:05.843Z,53.60
2018-09-12T18:48:33.767Z,53.20
2018-09-12T18:51:13.189Z,53.90
2018-09-12T18:53:41.053Z,53.00
2018-09-12T18:56:09.067Z,54.80
2018-09-12T18:58:39.431Z,55.50
2018-09-12T19:01:08.113Z,54.80
2018-09-12T19:03:35.925Z,55.00
2018-09-12T19:06:05.484Z,55.50
2018-09-12T19:08:33.704Z,56.50
2018-09-12T19:11:02.415Z,56.90
2018-09-12T19:13:30.688Z,57.10
2018-09-12T19:16:00.016Z,57.10
2018-09-12T19:18:28.000Z,58.40
2018-09-12T19:20:56.746Z,56.70
2018-09-12T19:23:24.639Z,59.10
2018-09-12T19:25:52.463Z,58.80
2018-09-12T19:28:20.314Z,60.40
2018-09-12T19:30:48.313Z,60.00
2018-09-12T19:33:16.165Z,61.50
2018-09-12T19:35:44.101Z,62.20
2018-09-12T19:38:11.951Z,62.20
2018-09-12T19:40:39.705Z,61.90
2018-09-12T19:43:07.876Z,63.00
2018-09-12T19:45:35.789Z,64.10
2018-09-12T19:48:03.819Z,62.90
2018-09-12T19:50:31.636Z,63.20
2018-09-12T19:52:59.390Z,63.80
2018-09-12T19:55:27.265Z,64.00
2018-09-12T19:57:55.234Z,65.80
2018-09-12T20:00:23.466Z,65.80
2018-09-12T20:02:51.307Z,67.60
2018-09-12T20:05:19.220Z,68.10
2018-09-12T20:07:47.091Z,70.10
2018-09-12T20:10:14.959Z,71.60
2018-09-12T20:12:42.796Z,72.90
2018-09-12T20:15:10.674Z,75.60
2018-09-12T20:17:38.511Z,76.20
2018-09-12T20:20:06.460Z,79.00
2018-09-12T20:22:34.706Z,79.00
2018-09-12T20:25:02.500Z,80.10
2018-09-12T20:27:30.291Z,81.40
2018-09-12T20:29:58.193Z,82.40
2018-09-12T20:32:25.977Z,82.80
2018-09-12T20:34:53.824Z,83.70
2018-09-12T20:37:21.655Z,85.50
2018-09-12T20:39:49.470Z,84.60
2018-09-12T20:42:17.364Z,86.20
2018-09-12T20:44:45.131Z,87.20
2018-09-12T20:47:13.006Z,87.80
2018-09-12T20:49:40.819Z,86.50
2018-09-12T20:52:08.631Z,88.00
2018-09-12T20:54:36.451Z,88.90
2018-09-12T20:57:04.763Z,89.50
2018-09-12T20:59:32.492Z,90.20
2018-09-12T21:02:00.272Z,90.00
2018-09-12T21:04:28.130Z,90.20
2018-09-12T21:06:55.940Z,90.40
2018-09-12T21:09:23.671Z,90.20
2018-09-12T21:11:51.620Z,90.40
2018-09-12T21:14:19.423Z,90.60
2018-09-12T21:16:47.239Z,90.90
2018-09-12T21:19:15.011Z,90.90
2018-09-12T21:21:42.844Z,91.80
2018-09-12T21:24:10.700Z,91.60
2018-09-12T21:26:38.498Z,91.10
2018-09-12T21:29:06.283Z,92.10
2018-09-12T21:31:34.120Z,92.10
2018-09-12T21:34:01.970Z,91.80
2018-09-12T21:36:29.755Z,92.50
2018-09-12T21:38:57.570Z,92.50
2018-09-12T21:41:25.403Z,92.90
2018-09-12T21:43:53.176Z,93.20
2018-09-12T21:46:21.035Z,93.00
2018-09-12T21:48:48.879Z,93.20
2018-09-12T21:51:16.950Z,92.50
2018-09-12T21:53:46.361Z,93.00
2018-09-12T21:56:14.176Z,93.50
2018-09-12T21:58:42.044Z,93.50
2018-09-12T22:01:09.803Z,93.30
2018-09-12T22:03:37.551Z,93.70
2018-09-12T22:06:05.419Z,94.20
2018-09-12T22:08:33.161Z,93.80
2018-09-12T22:11:00.995Z,94.00
2018-09-12T22:13:28.764Z,94.40
2018-09-12T22:15:56.488Z,94.40
2018-09-12T22:18:24.347Z,93.80
2018-09-12T22:20:52.128Z,93.70
2018-09-12T22:23:20.063Z,94.40
2018-09-12T22:25:48.021Z,94.80
2018-09-12T22:28:15.787Z,94.10
2018-09-12T22:30:43.838Z,94.70
2018-09-12T22:33:11.655Z,94.80
2018-09-12T22:35:39.420Z,95.10
2018-09-12T22:38:07.256Z,95.40
2018-09-12T22:40:34.975Z,95.50
2018-09-12T22:43:02.815Z,95.00
2018-09-12T22:45:30.614Z,95.70
2018-09-12T22:47:58.476Z,95.70
2018-09-12T22:50:26.240Z,95.20
2018-09-12T22:52:54.037Z,95.60
2018-09-12T22:55:21.846Z,95.30
2018-09-12T22:57:49.730Z,96.10
2018-09-12T23:00:17.580Z,96.10
2018-09-12T23:02:45.388Z,96.20
2018-09-12T23:05:13.247Z,95.40
2018-09-12T23:07:41.033Z,95.90
2018-09-12T23:10:08.786Z,96.20
2018-09-12T23:12:36.594Z,95.70
2018-09-12T23:15:04.488Z,96.50
2018-09-12T23:17:32.283Z,96.70
2018-09-12T23:20:00.233Z,96.50
2018-09-12T23:22:28.048Z,96.40
2018-09-12T23:24:55.893Z,96.50
2018-09-12T23:27:23.716Z,96.90
2018-09-12T23:29:51.568Z,96.80
2018-09-12T23:32:19.319Z,96.70
2018-09-12T23:34:47.216Z,96.70
2018-09-12T23:37:17.940Z,97.50
2018-09-12T23:39:45.792Z,97.30
2018-09-12T23:42:13.680Z,97.80
2018-09-12T23:44:41.497Z,97.40
2018-09-12T23:47:09.331Z,97.20
2018-09-12T23:49:37.161Z,97.80
2018-09-12T23:52:04.983Z,97.20
2018-09-12T23:54:32.837Z,97.80
2018-09-12T23:57:00.615Z,97.30
2018-09-12T23:59:28.436Z,97.60
